createdAt,value
2022-12-29T00:02:18.468Z,1.30
2022-12-29T00:04:45.439Z,1.77
2022-12-29T00:07:12.286Z,1.85
2022-12-29T00:09:39.277Z,1.33
2022-12-29T00:12:06.162Z,1.27
2022-12-29T00:14:51.408Z,1.20
2022-12-29T00:17:18.223Z,1.50
2022-12-29T00:20:03.464Z,1.48
2022-12-29T00:22:48.796Z,1.30
2022-12-29T00:25:34.033Z,1.40
2022-12-29T00:28:19.521Z,1.20
2022-12-29T00:31:04.976Z,1.13
2022-12-29T00:33:52.912Z,1.30
2022-12-29T00:36:22.644Z,1.35
2022-12-29T00:39:19.550Z,1.27
2022-12-29T00:42:05.394Z,1.75
2022-12-29T00:44:32.087Z,2.13
2022-12-29T00:47:03.403Z,1.13
2022-12-29T00:49:33.796Z,1.67
2022-12-29T00:52:05.312Z,1.20
2022-12-29T00:54:37.160Z,1.45
2022-12-29T00:57:04.893Z,1.50
2022-12-29T00:59:31.958Z,1.55
2022-12-29T01:01:59.739Z,1.65
2022-12-29T01:04:28.620Z,1.13
2022-12-29T01:06:55.260Z,1.25
2022-12-29T01:09:40.696Z,1.10
2022-12-29T01:12:09.413Z,1.30
2022-12-29T01:14:36.684Z,1.30
2022-12-29T01:17:03.601Z,1.20
2022-12-29T01:19:30.274Z,1.50
2022-12-29T01:21:56.997Z,1.20
2022-12-29T01:24:23.761Z,1.40
2022-12-29T01:26:50.607Z,1.38
2022-12-29T01:29:17.533Z,1.10
2022-12-29T01:31:46.055Z,1.30
2022-12-29T01:34:12.849Z,1.10
2022-12-29T01:36:39.649Z,1.30
2022-12-29T01:39:06.376Z,1.40
2022-12-29T01:41:33.408Z,1.40
2022-12-29T01:44:02.837Z,1.50
2022-12-29T01:46:34.576Z,1.40
2022-12-29T01:49:04.395Z,1.45
2022-12-29T01:51:33.119Z,1.38
2022-12-29T01:54:03.766Z,1.40
2022-12-29T01:56:30.450Z,1.67
2022-12-29T01:59:02.793Z,1.00
2022-12-29T02:01:29.714Z,1.20
2022-12-29T02:03:56.427Z,1.35
2022-12-29T02:06:32.298Z,1.20
2022-12-29T02:08:59.149Z,1.30
2022-12-29T02:11:27.695Z,1.20
2022-12-29T02:13:54.367Z,1.25
2022-12-29T02:16:35.727Z,1.48
2022-12-29T02:19:24.214Z,1.17
2022-12-29T02:22:43.848Z,1.13
2022-12-29T02:25:28.754Z,1.17
2022-12-29T02:28:18.743Z,0.90
2022-12-29T02:30:57.566Z,1.20
2022-12-29T02:33:42.875Z,1.45
2022-12-29T02:36:21.579Z,1.08
2022-12-29T02:39:03.394Z,1.38
2022-12-29T02:41:59.779Z,1.55
2022-12-29T02:44:32.431Z,1.23
2022-12-29T02:47:24.925Z,1.00
2022-12-29T02:49:59.085Z,1.13
2022-12-29T02:52:37.069Z,1.00
2022-12-29T02:55:03.907Z,1.10
2022-12-29T02:57:35.010Z,1.10
2022-12-29T03:00:09.264Z,1.20
2022-12-29T03:03:08.011Z,1.40
2022-12-29T03:05:47.029Z,1.13
2022-12-29T03:08:50.508Z,1.30
2022-12-29T03:11:36.443Z,1.00
2022-12-29T03:14:22.293Z,1.00
2022-12-29T03:16:53.700Z,1.38
2022-12-29T03:19:30.011Z,1.20
2022-12-29T03:22:17.025Z,1.20
2022-12-29T03:24:52.049Z,1.15
2022-12-29T03:27:22.412Z,1.13
2022-12-29T03:29:56.886Z,1.08
2022-12-29T03:32:27.634Z,1.23
2022-12-29T03:34:54.939Z,1.30
2022-12-29T03:37:25.916Z,1.20
2022-12-29T03:39:53.219Z,1.15
2022-12-29T03:42:25.112Z,1.00
2022-12-29T03:44:54.993Z,1.20
2022-12-29T03:47:22.029Z,1.10
2022-12-29T03:49:49.079Z,1.10
2022-12-29T03:52:16.568Z,1.15
2022-12-29T03:54:45.294Z,1.13
2022-12-29T03:57:13.051Z,1.20
2022-12-29T03:59:53.747Z,0.80
2022-12-29T04:02:20.579Z,1.23
2022-12-29T04:04:47.551Z,1.08
2022-12-29T04:07:14.235Z,1.00
2022-12-29T04:09:42.331Z,1.23
2022-12-29T04:12:12.213Z,0.90
2022-12-29T04:14:38.855Z,1.02
2022-12-29T04:17:05.488Z,1.02
2022-12-29T04:19:33.349Z,0.90
2022-12-29T04:22:01.423Z,1.20
2022-12-29T04:24:28.526Z,1.00
2022-12-29T04:26:55.425Z,1.25
2022-12-29T04:29:41.886Z,1.00
2022-12-29T04:32:18.443Z,0.95
2022-12-29T04:34:49.284Z,1.15
2022-12-29T04:37:16.248Z,1.42
2022-12-29T04:39:42.876Z,1.13
2022-12-29T04:42:09.736Z,1.02
2022-12-29T04:44:39.899Z,1.30
2022-12-29T04:47:15.040Z,1.30
2022-12-29T04:49:55.685Z,1.42
2022-12-29T04:52:42.630Z,2.40
2022-12-29T04:55:11.192Z,2.08
2022-12-29T04:57:38.029Z,1.80
2022-12-29T05:00:05.622Z,1.58
2022-12-29T05:02:32.462Z,1.27
2022-12-29T05:04:59.286Z,1.20
2022-12-29T05:07:26.909Z,1.42
2022-12-29T05:09:54.762Z,1.33
2022-12-29T05:12:21.464Z,1.10
2022-12-29T05:14:58.834Z,1.15
2022-12-29T05:17:25.621Z,1.05
2022-12-29T05:19:52.959Z,1.35
2022-12-29T05:22:20.086Z,1.40
2022-12-29T05:24:47.191Z,1.10
2022-12-29T05:27:14.525Z,1.10
2022-12-29T05:30:06.750Z,1.10
2022-12-29T05:32:34.522Z,1.20
2022-12-29T05:35:01.226Z,1.15
2022-12-29T05:37:28.714Z,1.88
2022-12-29T05:39:55.452Z,1.15
2022-12-29T05:42:22.194Z,1.10
2022-12-29T05:44:54.991Z,1.30
2022-12-29T05:47:32.614Z,1.10
2022-12-29T05:50:10.777Z,1.40
2022-12-29T05:52:55.735Z,1.30
2022-12-29T05:55:22.906Z,1.10
2022-12-29T05:57:52.559Z,1.25
2022-12-29T06:00:19.350Z,1.10
2022-12-29T06:02:47.298Z,1.05
2022-12-29T06:05:15.810Z,1.08
2022-12-29T06:07:42.505Z,1.10
2022-12-29T06:10:09.312Z,0.80
2022-12-29T06:12:56.234Z,1.15
2022-12-29T06:15:23.176Z,1.30
2022-12-29T06:17:50.887Z,1.20
2022-12-29T06:20:18.245Z,1.10
2022-12-29T06:22:44.943Z,1.10
2022-12-29T06:25:11.730Z,1.17
2022-12-29T06:27:39.497Z,1.00
2022-12-29T06:30:06.648Z,0.90
2022-12-29T06:32:33.307Z,0.95
2022-12-29T06:35:07.067Z,1.00
2022-12-29T06:37:37.653Z,1.15
2022-12-29T06:40:04.670Z,1.10
2022-12-29T06:42:43.413Z,1.20
2022-12-29T06:45:30.373Z,0.88
2022-12-29T06:47:57.254Z,0.82
2022-12-29T06:50:23.898Z,0.90
2022-12-29T06:52:50.540Z,0.73
2022-12-29T06:55:17.506Z,1.10
2022-12-29T06:57:44.129Z,1.00
2022-12-29T07:00:11.163Z,0.98
2022-12-29T07:02:37.861Z,0.75
2022-12-29T07:05:04.727Z,0.90
2022-12-29T07:07:31.374Z,0.98
2022-12-29T07:09:58.019Z,0.77
2022-12-29T07:12:24.646Z,0.88
2022-12-29T07:14:51.330Z,1.05
2022-12-29T07:17:17.947Z,1.23
2022-12-29T07:19:45.559Z,1.15
2022-12-29T07:22:12.309Z,0.80
2022-12-29T07:24:38.928Z,0.80
2022-12-29T07:27:05.694Z,0.80
2022-12-29T07:29:35.583Z,0.88
2022-12-29T07:32:02.318Z,1.10
2022-12-29T07:34:29.043Z,0.70
2022-12-29T07:36:55.677Z,1.15
2022-12-29T07:39:22.297Z,0.88
2022-12-29T07:41:48.915Z,1.10
2022-12-29T07:44:20.223Z,1.52
2022-12-29T07:47:00.393Z,1.08
2022-12-29T07:49:27.410Z,1.15
2022-12-29T07:51:54.077Z,0.80
2022-12-29T07:54:20.963Z,0.70
2022-12-29T07:56:47.632Z,0.82
2022-12-29T07:59:14.485Z,1.10
2022-12-29T08:01:41.356Z,1.05
2022-12-29T08:04:08.288Z,0.80
2022-12-29T08:06:35.055Z,1.13
2022-12-29T08:09:09.876Z,0.80
2022-12-29T08:11:41.407Z,0.88
2022-12-29T08:14:08.366Z,0.85
2022-12-29T08:16:35.453Z,0.88
2022-12-29T08:19:02.410Z,0.80
2022-12-29T08:21:29.609Z,0.70
2022-12-29T08:23:56.729Z,0.75
2022-12-29T08:26:23.366Z,0.77
2022-12-29T08:28:53.602Z,0.80
2022-12-29T08:31:20.332Z,0.80
2022-12-29T08:33:47.034Z,0.60
2022-12-29T08:36:13.617Z,0.70
2022-12-29T08:38:43.239Z,0.90
2022-12-29T08:41:09.910Z,0.80
2022-12-29T08:43:36.557Z,0.98
2022-12-29T08:46:03.320Z,0.77
2022-12-29T08:48:30.119Z,0.80
2022-12-29T08:50:56.794Z,0.90
2022-12-29T08:53:23.501Z,0.85
2022-12-29T08:56:03.705Z,0.90
2022-12-29T08:58:33.332Z,1.70
2022-12-29T09:01:00.473Z,0.80
2022-12-29T09:06:15.829Z,0.98
2022-12-29T09:08:42.659Z,0.93
2022-12-29T09:11:21.467Z,0.98
2022-12-29T09:13:48.507Z,0.80
2022-12-29T09:16:15.627Z,0.90
2022-12-29T09:18:43.088Z,0.85
2022-12-29T09:21:11.043Z,0.90
2022-12-29T09:23:38.175Z,0.80
2022-12-29T09:26:05.105Z,1.00
2022-12-29T09:28:32.194Z,0.82
2022-12-29T09:31:00.003Z,0.80
2022-12-29T09:33:27.021Z,0.85
2022-12-29T09:35:55.853Z,0.80
2022-12-29T09:38:22.840Z,1.00
2022-12-29T09:40:56.943Z,0.90
2022-12-29T09:43:42.354Z,0.75
2022-12-29T09:46:18.644Z,0.80
2022-12-29T09:48:49.185Z,1.00
2022-12-29T09:51:18.471Z,0.80
2022-12-29T09:54:05.046Z,0.90
2022-12-29T09:56:32.089Z,0.80
2022-12-29T09:59:21.567Z,0.90
2022-12-29T10:02:27.557Z,1.05
2022-12-29T10:04:54.290Z,0.73
2022-12-29T10:07:42.955Z,1.00
2022-12-29T10:10:34.650Z,0.80
2022-12-29T10:13:14.595Z,0.60
2022-12-29T10:15:56.410Z,0.70
2022-12-29T10:19:02.562Z,0.70
2022-12-29T10:21:50.844Z,0.80
2022-12-29T10:24:22.717Z,0.70
2022-12-29T10:26:52.330Z,0.70
2022-12-29T10:29:26.068Z,1.05
2022-12-29T10:32:00.286Z,0.73
2022-12-29T10:34:30.710Z,0.93
2022-12-29T10:37:15.507Z,0.50
2022-12-29T10:39:47.333Z,0.70
2022-12-29T10:42:19.330Z,0.75
2022-12-29T10:44:46.079Z,0.73
2022-12-29T10:47:18.897Z,0.90
2022-12-29T10:49:49.754Z,0.80
2022-12-29T10:52:18.796Z,0.93
2022-12-29T10:55:04.769Z,0.70
2022-12-29T10:57:41.085Z,0.55
2022-12-29T11:00:16.328Z,0.55
2022-12-29T11:03:17.026Z,0.70
2022-12-29T11:05:53.352Z,0.60
2022-12-29T11:08:26.478Z,0.77
2022-12-29T11:11:03.130Z,0.70
2022-12-29T11:13:38.308Z,0.73
2022-12-29T11:16:05.665Z,0.70
2022-12-29T11:18:37.127Z,0.80
2022-12-29T11:21:07.724Z,0.68
2022-12-29T11:23:38.770Z,0.70
2022-12-29T11:26:11.282Z,0.70
2022-12-29T11:28:39.470Z,0.77
2022-12-29T11:31:08.128Z,0.80
2022-12-29T11:33:40.000Z,0.60
2022-12-29T11:36:16.646Z,1.33
2022-12-29T11:38:47.230Z,0.73
2022-12-29T11:41:21.140Z,0.82
2022-12-29T11:43:48.895Z,0.73
2022-12-29T11:46:22.290Z,0.60
2022-12-29T11:48:49.775Z,0.88
2022-12-29T11:51:39.207Z,0.70
2022-12-29T11:54:06.576Z,0.80
2022-12-29T11:56:44.063Z,0.68
2022-12-29T11:59:53.220Z,0.80
2022-12-29T12:02:43.719Z,0.70
2022-12-29T12:05:19.777Z,0.50
2022-12-29T12:07:49.061Z,0.68
2022-12-29T12:10:23.734Z,0.40
2022-12-29T12:13:00.238Z,0.57
2022-12-29T12:15:33.034Z,0.60
2022-12-29T12:18:37.386Z,0.60
2022-12-29T12:21:13.986Z,0.40
2022-12-29T12:24:16.408Z,0.43
2022-12-29T12:26:59.899Z,0.60
2022-12-29T12:29:38.354Z,0.63
2022-12-29T12:32:19.861Z,0.52
2022-12-29T12:34:47.545Z,0.50
2022-12-29T12:37:14.179Z,0.50
2022-12-29T12:40:06.463Z,0.40
2022-12-29T12:42:50.237Z,0.50
2022-12-29T12:45:33.024Z,0.40
2022-12-29T12:48:25.496Z,0.40
2022-12-29T12:51:02.219Z,0.40
2022-12-29T12:53:53.702Z,0.40
2022-12-29T12:56:40.330Z,0.40
2022-12-29T12:59:16.221Z,0.50
2022-12-29T13:01:58.548Z,0.50
2022-12-29T13:04:38.047Z,0.50
2022-12-29T13:07:29.770Z,0.40
2022-12-29T13:10:34.100Z,0.47
2022-12-29T13:13:37.117Z,0.45
2022-12-29T13:16:14.916Z,0.40
2022-12-29T13:18:49.765Z,0.40
2022-12-29T13:21:28.902Z,0.75
2022-12-29T13:24:26.336Z,0.65
2022-12-29T13:26:59.569Z,1.17
2022-12-29T13:29:54.488Z,0.70
2022-12-29T13:32:30.191Z,0.80
2022-12-29T13:35:17.879Z,0.73
2022-12-29T13:37:52.423Z,0.65
2022-12-29T13:40:24.085Z,0.60
2022-12-29T13:42:52.049Z,0.77
2022-12-29T13:45:22.372Z,0.80
2022-12-29T13:47:55.746Z,0.57
2022-12-29T13:50:25.643Z,0.80
2022-12-29T13:53:03.782Z,0.80
2022-12-29T13:55:38.780Z,0.70
2022-12-29T13:58:43.015Z,0.80
2022-12-29T14:01:15.579Z,1.00
2022-12-29T14:03:44.746Z,0.70
2022-12-29T14:06:26.706Z,0.88
2022-12-29T14:08:56.272Z,1.00
2022-12-29T14:11:28.238Z,1.00
2022-12-29T14:13:55.401Z,0.90
2022-12-29T14:16:28.407Z,0.90
2022-12-29T14:18:58.287Z,1.00
2022-12-29T14:21:30.805Z,0.90
2022-12-29T14:24:27.280Z,0.70
2022-12-29T14:26:53.883Z,0.80
2022-12-29T14:29:26.700Z,0.88
2022-12-29T14:31:54.074Z,0.98
2022-12-29T14:34:21.601Z,0.90
2022-12-29T14:37:01.449Z,1.13
2022-12-29T14:39:39.127Z,1.00
2022-12-29T14:42:11.787Z,1.33
2022-12-29T14:44:50.686Z,1.17
2022-12-29T14:47:23.978Z,1.20
2022-12-29T14:49:50.714Z,1.80
2022-12-29T14:52:24.187Z,1.35
2022-12-29T14:54:54.964Z,1.50
2022-12-29T14:57:26.286Z,1.33
2022-12-29T15:00:09.152Z,1.00
2022-12-29T15:02:41.732Z,1.20
2022-12-29T15:05:26.321Z,1.40
2022-12-29T15:07:59.832Z,1.17
2022-12-29T15:10:27.487Z,1.63
2022-12-29T15:13:05.668Z,1.48
2022-12-29T15:15:37.695Z,1.13
2022-12-29T15:18:40.395Z,1.45
2022-12-29T15:21:07.731Z,0.90
2022-12-29T15:23:36.105Z,1.30
2022-12-29T15:26:08.058Z,1.05
2022-12-29T15:28:46.572Z,1.13
2022-12-29T15:31:28.029Z,1.10
2022-12-29T15:34:04.420Z,1.40
2022-12-29T15:36:39.109Z,1.58
2022-12-29T15:39:31.808Z,1.60
2022-12-29T15:42:33.622Z,1.50
2022-12-29T15:45:10.208Z,2.10
2022-12-29T15:47:39.803Z,2.20
2022-12-29T15:50:21.981Z,1.50
2022-12-29T15:52:48.904Z,1.60
2022-12-29T15:55:28.627Z,1.40
2022-12-29T15:58:00.196Z,1.50
2022-12-29T16:00:32.953Z,1.67
2022-12-29T16:03:02.432Z,1.55
2022-12-29T16:05:34.726Z,0.93
2022-12-29T16:08:02.560Z,1.25
2022-12-29T16:10:37.198Z,1.27
2022-12-29T16:13:07.590Z,1.15
2022-12-29T16:15:34.333Z,1.10
2022-12-29T16:18:07.238Z,1.10
2022-12-29T16:20:41.301Z,1.20
2022-12-29T16:23:19.352Z,1.08
2022-12-29T16:25:46.182Z,1.17
2022-12-29T16:28:23.905Z,1.48
2022-12-29T16:31:05.348Z,1.65
2022-12-29T16:33:41.278Z,0.90
2022-12-29T16:36:28.171Z,0.60
2022-12-29T16:39:24.566Z,0.73
2022-12-29T16:41:51.557Z,0.70
2022-12-29T16:44:32.002Z,0.57
2022-12-29T16:47:10.939Z,0.80
2022-12-29T16:49:48.717Z,0.73
2022-12-29T16:52:20.683Z,0.80
2022-12-29T16:54:54.264Z,0.85
2022-12-29T16:57:29.946Z,1.10
2022-12-29T17:00:00.815Z,1.08
2022-12-29T17:02:30.246Z,0.90
2022-12-29T17:04:56.980Z,0.88
2022-12-29T17:07:25.605Z,0.80
2022-12-29T17:09:54.353Z,0.80
2022-12-29T17:12:27.323Z,0.90
2022-12-29T17:14:57.786Z,1.60
2022-12-29T17:17:35.699Z,0.50
2022-12-29T17:20:17.570Z,0.40
2022-12-29T17:22:44.848Z,0.70
2022-12-29T17:25:19.603Z,0.60
2022-12-29T17:27:49.273Z,0.52
2022-12-29T17:30:18.033Z,0.60
2022-12-29T17:32:58.733Z,0.65
2022-12-29T17:35:25.786Z,0.80
2022-12-29T17:37:53.206Z,0.80
2022-12-29T17:40:29.585Z,0.65
2022-12-29T17:42:57.515Z,0.50
2022-12-29T17:45:29.075Z,0.60
2022-12-29T17:47:56.413Z,0.73
2022-12-29T17:50:26.751Z,0.60
2022-12-29T17:53:00.732Z,0.50
2022-12-29T17:55:32.992Z,1.05
2022-12-29T17:58:16.025Z,0.77
2022-12-29T18:00:43.875Z,1.00
2022-12-29T18:03:24.403Z,0.75
2022-12-29T18:05:51.176Z,0.70
2022-12-29T18:08:17.869Z,0.80
2022-12-29T18:10:44.690Z,0.90
2022-12-29T18:13:29.358Z,0.60
2022-12-29T18:16:05.738Z,1.00
2022-12-29T18:18:32.503Z,0.90
2022-12-29T18:21:00.306Z,0.93
2022-12-29T18:23:32.603Z,0.90
2022-12-29T18:26:00.872Z,0.70
2022-12-29T18:28:28.504Z,1.20
2022-12-29T18:30:57.407Z,0.93
2022-12-29T18:33:26.656Z,1.00
2022-12-29T18:36:02.336Z,0.90
2022-12-29T18:38:29.979Z,0.68
2022-12-29T18:40:57.222Z,0.60
2022-12-29T18:43:23.926Z,0.68
2022-12-29T18:45:50.888Z,0.80
2022-12-29T18:48:18.668Z,1.05
2022-12-29T18:50:46.695Z,1.45
2022-12-29T18:53:22.321Z,0.70
2022-12-29T18:55:51.188Z,0.90
2022-12-29T18:58:18.145Z,1.00
2022-12-29T19:00:45.052Z,0.88
2022-12-29T19:03:17.154Z,1.27
2022-12-29T19:05:45.384Z,1.40
2022-12-29T19:08:12.369Z,0.93
2022-12-29T19:10:39.995Z,1.15
2022-12-29T19:13:06.759Z,1.20
2022-12-29T19:15:40.521Z,1.00
2022-12-29T19:20:56.868Z,0.90
2022-12-29T19:23:25.681Z,1.17
2022-12-29T19:25:54.345Z,1.00
2022-12-29T19:28:26.391Z,1.00
2022-12-29T19:30:57.426Z,0.90
2022-12-29T19:33:24.441Z,0.90
2022-12-29T19:35:51.758Z,1.20
2022-12-29T19:38:19.489Z,0.85
2022-12-29T19:40:48.920Z,1.20
2022-12-29T19:43:15.572Z,1.20
2022-12-29T19:45:43.721Z,1.00
2022-12-29T19:48:19.528Z,1.00
2022-12-29T19:50:46.550Z,1.10
2022-12-29T19:53:13.596Z,0.90
2022-12-29T19:55:44.653Z,1.05
2022-12-29T19:58:12.247Z,1.10
2022-12-29T20:00:40.390Z,0.95
2022-12-29T20:03:07.146Z,1.20
2022-12-29T20:05:34.027Z,0.90
2022-12-29T20:08:00.668Z,1.05
2022-12-29T20:10:27.382Z,1.20
2022-12-29T20:12:54.110Z,1.05
2022-12-29T20:15:20.788Z,1.48
2022-12-29T20:18:16.286Z,0.98
2022-12-29T20:20:34.879Z,1.10
2022-12-29T20:23:01.626Z,0.95
2022-12-29T20:25:46.754Z,1.13
2022-12-29T20:28:15.690Z,1.27
2022-12-29T20:30:42.560Z,0.98
2022-12-29T20:33:09.338Z,0.90
2022-12-29T20:35:36.601Z,1.00
2022-12-29T20:38:03.975Z,1.10
2022-12-29T20:40:30.758Z,0.93
2022-12-29T20:42:57.429Z,0.90
2022-12-29T20:45:24.490Z,0.85
2022-12-29T20:47:51.232Z,0.90
2022-12-29T20:50:18.015Z,1.02
2022-12-29T20:52:44.852Z,1.10
2022-12-29T20:55:11.650Z,1.05
2022-12-29T20:58:22.131Z,1.00
2022-12-29T21:00:25.871Z,1.40
2022-12-29T21:02:53.186Z,0.70
2022-12-29T21:05:24.348Z,0.80
2022-12-29T21:07:52.738Z,1.00
2022-12-29T21:10:19.598Z,1.13
2022-12-29T21:12:46.482Z,1.20
2022-12-29T21:15:15.129Z,1.02
2022-12-29T21:17:43.709Z,1.10
2022-12-29T21:20:20.045Z,1.00
2022-12-29T21:22:50.745Z,0.85
2022-12-29T21:25:17.599Z,0.90
2022-12-29T21:27:44.399Z,0.98
2022-12-29T21:30:12.114Z,0.95
2022-12-29T21:32:39.591Z,1.15
2022-12-29T21:35:07.450Z,1.13
2022-12-29T21:37:34.492Z,1.42
2022-12-29T21:40:01.160Z,2.33
2022-12-29T21:42:27.963Z,0.80
2022-12-29T21:45:19.841Z,1.13
2022-12-29T21:48:06.114Z,1.02
2022-12-29T21:50:32.842Z,0.90
2022-12-29T21:52:59.560Z,0.80
2022-12-29T21:55:26.212Z,0.98
2022-12-29T21:58:22.082Z,1.02
2022-12-29T22:01:09.076Z,0.90
2022-12-29T22:03:57.209Z,0.73
2022-12-29T22:06:42.389Z,0.70
2022-12-29T22:09:30.364Z,0.73
2022-12-29T22:12:15.665Z,0.93
2022-12-29T22:14:42.283Z,0.75
2022-12-29T22:17:14.007Z,0.88
2022-12-29T22:19:41.022Z,1.10
2022-12-29T22:22:07.714Z,0.85
2022-12-29T22:24:34.340Z,0.80
2022-12-29T22:27:01.064Z,0.77
2022-12-29T22:29:27.885Z,0.63
2022-12-29T22:31:54.590Z,0.60
2022-12-29T22:34:21.230Z,0.70
2022-12-29T22:36:47.991Z,0.70
2022-12-29T22:39:14.763Z,1.35
2022-12-29T22:41:41.395Z,0.95
2022-12-29T22:44:08.149Z,0.68
2022-12-29T22:46:34.979Z,0.65
2022-12-29T22:49:01.697Z,0.90
2022-12-29T22:51:28.371Z,0.98
2022-12-29T22:53:55.081Z,1.00
2022-12-29T22:56:22.043Z,1.02
2022-12-29T22:58:51.710Z,0.93
2022-12-29T23:01:22.542Z,0.70
2022-12-29T23:03:52.863Z,0.90
2022-12-29T23:06:19.559Z,0.98
2022-12-29T23:08:47.500Z,0.70
2022-12-29T23:11:14.615Z,0.70
2022-12-29T23:13:41.825Z,0.95
2022-12-29T23:16:09.632Z,0.85
2022-12-29T23:18:37.144Z,0.90
2022-12-29T23:21:04.236Z,0.80
2022-12-29T23:23:50.101Z,0.80
2022-12-29T23:26:17.876Z,0.77
2022-12-29T23:28:44.670Z,1.20
2022-12-29T23:31:11.388Z,0.60
2022-12-29T23:33:38.228Z,0.80
2022-12-29T23:36:05.471Z,1.00
2022-12-29T23:38:32.112Z,0.70
2022-12-29T23:40:58.768Z,0.77
2022-12-29T23:43:25.384Z,0.85
2022-12-29T23:45:52.147Z,1.52
2022-12-29T23:48:19.490Z,0.70
2022-12-29T23:50:46.224Z,0.65
2022-12-29T23:53:13.196Z,0.75
2022-12-29T23:55:44.145Z,0.98
2022-12-29T23:58:11.397Z,1.02
